Hensley, Arkansas
Current Conditions -  °F | °C
As of 9:53 PM on Saturday 24 Jan 2015 (Local Time) from KLIT Reporting Station
Clear Clear  
Wind Chill: 46°   Ceiling: Unl
Heat Index: 46°   Visibility: 10mi
Dew Point: 32°   Wind: 0mph
Humidity: 58%   Direction: NA
Pressure: 29.93"   Gusts: NA
Location:  34.51°N, 92.21°W
Report Text: KLIT 250353Z 00000KT 10SM CLR 08/00 A2993 RMK AO2 SLP138 T00780000
Loading
Personal Weather Stations






























Interactive Weather Map New forecast layout! Learn more

10-Day Weather Forecast

Advertisements
Track Severe Weather on mobile